Time;durP1;ratioP1;P1;durP2;ratioP2;P2;SDS_P1;SDS_P2;PMS_P1;PMS_P2;Temp;Humidity;BMP_temperature;BMP_pressure;BME280_temperature;BME280_humidity;BME280_pressure;Samples;Min_cycle;Max_cycle;Signal;HPM_P1;HPM_P2
2021/08/23 17:41:26;;;;;;;9.95;5.25;;;20.60;79.40;;;;;;5111793;27;20385;-75
2021/08/23 17:43:52;;;;;;;15.90;5.90;;;20.10;82.20;;;;;;5111704;28;20101;-78
2021/08/23 17:46:18;;;;;;;26.73;7.30;;;20.00;84.50;;;;;;5110351;28;20024;-78
2021/08/23 17:48:43;;;;;;;17.00;8.40;;;20.00;86.40;;;;;;5111630;28;20454;-76
2021/08/23 17:51:09;;;;;;;14.15;7.22;;;20.00;88.00;;;;;;5111347;28;20055;-76
2021/08/23 17:53:35;;;;;;;14.05;7.75;;;20.00;89.00;;;;;;5112370;28;20031;-77
2021/08/23 17:56:01;;;;;;;18.70;8.20;;;20.10;89.80;;;;;;5111222;28;20102;-77
2021/08/23 17:58:26;;;;;;;17.65;8.77;;;20.10;90.10;;;;;;5111228;28;20055;-77
2021/08/23 18:00:52;;;;;;;15.13;9.10;;;20.20;90.30;;;;;;5111175;28;20470;-77
2021/08/23 18:03:18;;;;;;;14.70;9.88;;;20.20;90.50;;;;;;5111380;28;20028;-76
2021/08/23 18:05:43;;;;;;;19.75;10.73;;;20.20;90.60;;;;;;5111102;28;20032;-76
2021/08/23 18:08:09;;;;;;;21.77;12.85;;;20.30;90.80;;;;;;5111611;28;20027;-76
2021/08/23 18:10:34;;;;;;;26.73;14.73;;;20.30;91.00;;;;;;5111710;28;20084;-77
2021/08/23 18:13:00;;;;;;;21.35;14.73;;;20.30;91.20;;;;;;5111288;28;20034;-76
2021/08/23 18:15:26;;;;;;;24.48;14.73;;;20.30;91.40;;;;;;5110986;28;20020;-77
2021/08/23 18:17:51;;;;;;;20.40;15.43;;;20.30;91.50;;;;;;5110949;28;20023;-77
2021/08/23 18:20:17;;;;;;;23.85;15.68;;;20.30;91.60;;;;;;5110828;28;20028;-76
2021/08/23 18:22:43;;;;;;;25.58;15.32;;;20.30;91.80;;;;;;5111376;28;20107;-77
2021/08/23 18:25:09;;;;;;;23.75;15.23;;;20.30;91.80;;;;;;5110832;28;20074;-76
2021/08/23 18:27:35;;;;;;;27.23;15.55;;;20.30;91.90;;;;;;5110658;28;20539;-76
2021/08/23 18:30:01;;;;;;;23.48;13.98;;;20.30;92.00;;;;;;5110820;28;20108;-76
2021/08/23 18:32:27;;;;;;;23.20;14.15;;;20.30;92.10;;;;;;5110578;28;20028;-75
2021/08/23 18:34:53;;;;;;;26.52;14.90;;;20.20;92.20;;;;;;5110420;28;20020;-75
2021/08/23 18:37:19;;;;;;;24.38;15.30;;;20.30;92.40;;;;;;5111148;28;20027;-75
2021/08/23 18:39:44;;;;;;;23.55;15.45;;;20.20;92.50;;;;;;5109189;28;20097;-75
2021/08/23 18:42:10;;;;;;;24.60;16.55;;;20.20;92.60;;;;;;5111170;28;20442;-75
2021/08/23 18:44:37;;;;;;;30.30;16.42;;;20.20;92.80;;;;;;5108704;28;20492;-75
2021/08/23 18:47:03;;;;;;;26.48;17.05;;;20.20;92.80;;;;;;5110073;28;20466;-76
2021/08/23 18:49:29;;;;;;;31.00;20.83;;;20.20;92.90;;;;;;5110030;28;20043;-76
2021/08/23 18:51:55;;;;;;;25.60;16.98;;;20.10;92.90;;;;;;5101623;28;20024;-78
2021/08/23 18:54:22;;;;;;;28.52;17.60;;;20.10;92.90;;;;;;5097219;28;20024;-77
2021/08/23 18:56:48;;;;;;;25.80;16.83;;;20.10;92.90;;;;;;5097242;28;20024;-76
2021/08/23 18:59:13;;;;;;;29.02;16.27;;;20.10;93.00;;;;;;5096511;28;20028;-75
2021/08/23 19:01:40;;;;;;;28.67;18.42;;;20.10;93.10;;;;;;5096909;28;20091;-74
2021/08/23 19:04:05;;;;;;;37.30;27.27;;;20.00;93.20;;;;;;5096482;28;20020;-74
2021/08/23 19:06:31;;;;;;;48.40;35.95;;;20.00;93.20;;;;;;5095859;28;20099;-74
2021/08/23 19:08:57;;;;;;;34.17;24.40;;;20.00;93.30;;;;;;5096800;28;20024;-74
2021/08/23 19:11:23;;;;;;;38.28;27.08;;;20.00;93.30;;;;;;5096449;28;20028;-74
2021/08/23 19:13:49;;;;;;;27.95;18.30;;;20.00;93.40;;;;;;5096581;28;20119;-75
2021/08/23 19:16:15;;;;;;;26.30;16.05;;;20.00;93.60;;;;;;5095922;28;20373;-74
2021/08/23 19:18:40;;;;;;;24.48;14.25;;;20.00;93.60;;;;;;5095977;28;20024;-74
2021/08/23 19:21:06;;;;;;;22.52;14.13;;;20.00;93.60;;;;;;5095709;28;20115;-74
2021/08/23 19:23:32;;;;;;;20.35;13.40;;;19.90;93.40;;;;;;5096125;28;20020;-74
2021/08/23 19:25:59;;;;;;;19.40;13.90;;;19.90;93.40;;;;;;5096688;28;20103;-75
2021/08/23 19:28:26;;;;;;;23.38;13.43;;;19.90;93.40;;;;;;5095883;28;20016;-74
2021/08/23 19:30:53;;;;;;;22.23;13.60;;;19.80;93.40;;;;;;5095826;28;20028;-74
2021/08/23 19:33:21;;;;;;;23.35;14.43;;;19.80;93.50;;;;;;5095969;28;20020;-74
2021/08/23 19:35:47;;;;;;;19.65;14.05;;;19.80;93.80;;;;;;5096194;28;20016;-74
2021/08/23 19:38:13;;;;;;;23.58;13.52;;;19.70;93.60;;;;;;5095684;28;20030;-74
2021/08/23 19:40:38;;;;;;;23.05;13.55;;;19.70;93.70;;;;;;5095575;28;20121;-74
2021/08/23 19:43:05;;;;;;;21.98;13.70;;;19.70;93.80;;;;;;5095855;28;20031;-74
2021/08/23 19:45:30;;;;;;;21.27;13.35;;;19.60;93.80;;;;;;5095452;28;20039;-74
2021/08/23 19:47:56;;;;;;;18.05;12.57;;;19.60;93.90;;;;;;5094717;28;20020;-74
2021/08/23 19:50:22;;;;;;;22.90;12.68;;;19.60;94.00;;;;;;5094897;28;20073;-75
2021/08/23 19:52:48;;;;;;;18.73;12.48;;;19.50;94.10;;;;;;5094844;28;20059;-74
2021/08/23 19:55:14;;;;;;;21.10;12.13;;;19.50;94.20;;;;;;5094827;28;20032;-74
2021/08/23 19:57:41;;;;;;;17.08;12.23;;;19.50;94.30;;;;;;5094990;28;20034;-74
2021/08/23 20:00:08;;;;;;;20.23;11.80;;;19.50;94.30;;;;;;5094758;28;20024;-74
2021/08/23 20:02:34;;;;;;;20.83;12.40;;;19.40;94.40;;;;;;5093071;28;20404;-74
2021/08/23 20:04:59;;;;;;;25.58;12.13;;;19.40;94.40;;;;;;5094196;28;20028;-74
2021/08/23 20:07:25;;;;;;;18.27;12.10;;;19.40;94.50;;;;;;5094662;28;20024;-74
2021/08/23 20:09:51;;;;;;;19.48;12.55;;;19.40;94.60;;;;;;5094696;28;20028;-75
2021/08/23 20:12:16;;;;;;;19.48;12.93;;;19.30;94.60;;;;;;5094985;28;20024;-74
2021/08/23 20:14:42;;;;;;;19.40;12.40;;;19.30;94.70;;;;;;5094199;28;20481;-74
2021/08/23 20:17:08;;;;;;;18.98;12.13;;;19.30;94.80;;;;;;5094809;28;20036;-74
2021/08/23 20:19:33;;;;;;;24.10;12.27;;;19.20;94.80;;;;;;5094617;28;20055;-74
2021/08/23 20:21:59;;;;;;;23.65;12.18;;;19.20;94.90;;;;;;5094634;28;20046;-74
2021/08/23 20:24:25;;;;;;;20.15;12.02;;;19.20;95.10;;;;;;5094127;28;20024;-74
2021/08/23 20:26:50;;;;;;;17.90;11.98;;;19.10;95.10;;;;;;5094235;28;20020;-74
2021/08/23 20:29:17;;;;;;;21.35;13.35;;;19.10;95.10;;;;;;5094606;28;20092;-76
2021/08/23 20:31:44;;;;;;;20.00;11.57;;;19.10;95.20;;;;;;5094639;28;20429;-75
2021/08/23 20:34:12;;;;;;;52.03;41.40;;;19.10;95.40;;;;;;5094074;28;20027;-74
2021/08/23 20:39:06;;;;;;;34.28;23.38;;;19.00;95.40;;;;;;5094231;28;20115;-74
2021/08/23 20:41:34;;;;;;;26.00;17.48;;;19.00;95.40;;;;;;5094451;28;20016;-74
2021/08/23 20:44:06;;;;;;;25.58;16.98;;;19.00;95.50;;;;;;5094497;28;20488;-74
2021/08/23 20:46:34;;;;;;;28.30;15.63;;;18.90;95.40;;;;;;5094446;28;20048;-74
2021/08/23 20:49:00;;;;;;;25.02;15.13;;;18.90;95.50;;;;;;5094371;28;20095;-74
2021/08/23 20:51:26;;;;;;;28.25;16.13;;;18.90;95.60;;;;;;5094568;28;20035;-74
2021/08/23 20:53:53;;;;;;;22.90;14.90;;;18.90;95.70;;;;;;5094443;28;20518;-74
2021/08/23 20:56:19;;;;;;;24.95;15.38;;;18.90;95.80;;;;;;5094877;28;20462;-74
2021/08/23 20:58:45;;;;;;;24.17;15.95;;;18.90;95.80;;;;;;5093969;28;20385;-74
2021/08/23 21:01:14;;;;;;;23.55;15.57;;;18.80;95.80;;;;;;5094298;28;20103;-74
2021/08/23 21:03:40;;;;;;;23.80;16.37;;;18.80;95.90;;;;;;5094185;28;20023;-74
2021/08/23 21:06:05;;;;;;;26.58;15.88;;;18.80;96.00;;;;;;5094254;28;20012;-74
2021/08/23 21:08:31;;;;;;;22.58;15.75;;;18.70;96.00;;;;;;5094027;28;20451;-74
2021/08/23 21:10:57;;;;;;;25.75;15.73;;;18.70;96.10;;;;;;5094199;28;20028;-74
2021/08/23 21:13:22;;;;;;;25.45;15.52;;;18.70;96.20;;;;;;5093774;28;20032;-74
2021/08/23 21:15:48;;;;;;;24.45;16.23;;;18.70;96.20;;;;;;5093935;28;20028;-74
2021/08/23 21:18:14;;;;;;;23.92;15.00;;;18.70;96.30;;;;;;5094161;28;20463;-74
2021/08/23 21:20:39;;;;;;;21.90;14.85;;;18.60;96.40;;;;;;5114628;28;20051;-74
2021/08/23 21:23:05;;;;;;;24.23;14.27;;;18.60;96.50;;;;;;5114342;28;20021;-74
2021/08/23 21:25:34;;;;;;;27.08;14.98;;;18.60;96.50;;;;;;5114193;28;20430;-74
2021/08/23 21:28:00;;;;;;;25.92;15.57;;;18.60;96.60;;;;;;5114296;28;20026;-74
2021/08/23 21:30:26;;;;;;;28.23;16.55;;;18.50;96.60;;;;;;5114290;28;20027;-74
2021/08/23 21:32:52;;;;;;;32.95;17.67;;;18.50;96.70;;;;;;5114115;28;20030;-74
2021/08/23 21:35:18;;;;;;;32.70;19.63;;;18.50;96.80;;;;;;5114317;28;20032;-74
2021/08/23 21:37:43;;;;;;;30.42;19.83;;;18.50;96.80;;;;;;5112859;28;20032;-74
2021/08/23 21:40:12;;;;;;;30.48;20.33;;;18.40;96.80;;;;;;5093643;28;20371;-74
2021/08/23 21:42:38;;;;;;;36.60;21.25;;;18.40;97.00;;;;;;5093878;28;20070;-74
2021/08/23 21:45:05;;;;;;;34.00;21.17;;;18.40;96.80;;;;;;5094023;28;20028;-74
2021/08/23 21:47:30;;;;;;;36.15;21.48;;;18.40;96.80;;;;;;5094047;28;20021;-74
2021/08/23 21:49:56;;;;;;;36.35;22.95;;;18.40;96.80;;;;;;5093764;28;20024;-74
2021/08/23 21:52:22;;;;;;;37.40;22.77;;;18.40;96.80;;;;;;5093724;28;20024;-74
2021/08/23 21:54:47;;;;;;;35.00;21.23;;;18.40;96.90;;;;;;5093430;28;20085;-74
2021/08/23 21:57:13;;;;;;;39.70;21.98;;;18.40;97.10;;;;;;5093583;28;20035;-74
2021/08/23 21:59:38;;;;;;;36.10;22.73;;;18.30;97.00;;;;;;5093667;28;20032;-74
2021/08/23 22:02:04;;;;;;;36.20;22.65;;;18.30;97.00;;;;;;5094214;28;20101;-74
2021/08/23 22:04:30;;;;;;;35.67;22.92;;;18.30;97.10;;;;;;5093559;28;20020;-74
2021/08/23 22:06:55;;;;;;;33.10;22.00;;;18.30;97.10;;;;;;5094020;28;20078;-74
2021/08/23 22:09:21;;;;;;;32.53;21.80;;;18.30;97.10;;;;;;5093792;28;20028;-74
2021/08/23 22:11:47;;;;;;;34.28;21.65;;;18.20;97.20;;;;;;5093637;28;20031;-74
2021/08/23 22:14:13;;;;;;;32.17;21.00;;;18.20;97.30;;;;;;5093467;28;20013;-74
2021/08/23 22:16:39;;;;;;;32.60;21.52;;;18.20;97.30;;;;;;5093942;28;20451;-74
2021/08/23 22:19:04;;;;;;;34.97;21.85;;;18.20;97.40;;;;;;5093610;28;20099;-74
2021/08/23 22:21:30;;;;;;;35.25;20.92;;;18.20;97.50;;;;;;5093435;28;20045;-74
2021/08/23 22:23:56;;;;;;;35.47;20.88;;;18.20;97.50;;;;;;5093366;28;20031;-74
2021/08/23 22:26:22;;;;;;;35.25;21.20;;;18.20;97.50;;;;;;5094377;28;20020;-74
2021/08/23 22:28:50;;;;;;;31.60;19.85;;;18.10;97.50;;;;;;5097881;28;20035;-74
2021/08/23 22:31:16;;;;;;;33.90;19.55;;;18.10;97.60;;;;;;5097351;28;20019;-74
2021/08/23 22:33:42;;;;;;;36.33;20.50;;;18.10;97.70;;;;;;5097231;28;20024;-74
2021/08/23 22:36:08;;;;;;;30.67;19.58;;;18.10;97.70;;;;;;5097193;28;20039;-74
2021/08/23 22:38:34;;;;;;;31.25;20.13;;;18.10;97.70;;;;;;5097301;28;20474;-74
2021/08/23 22:41:02;;;;;;;32.15;18.92;;;18.00;97.80;;;;;;5097140;28;20051;-74
2021/08/23 22:43:28;;;;;;;28.50;18.65;;;18.00;97.90;;;;;;5096794;28;20068;-74
2021/08/23 22:45:53;;;;;;;29.08;18.75;;;18.00;98.00;;;;;;5097280;28;20016;-74
2021/08/23 22:48:19;;;;;;;27.13;17.48;;;18.00;98.00;;;;;;5097128;28;20020;-74
2021/08/23 22:50:45;;;;;;;27.95;17.85;;;18.00;98.00;;;;;;5097156;28;20024;-74
2021/08/23 22:53:11;;;;;;;29.67;18.13;;;18.00;98.00;;;;;;5097063;28;20077;-74
2021/08/23 22:55:36;;;;;;;27.27;17.33;;;18.00;98.00;;;;;;5096885;28;20020;-74
2021/08/23 22:58:03;;;;;;;25.73;17.00;;;18.00;98.00;;;;;;5096500;28;20067;-74
2021/08/23 23:00:29;;;;;;;26.88;17.95;;;18.00;98.00;;;;;;5097050;28;20036;-74
2021/08/23 23:02:55;;;;;;;26.80;18.30;;;17.90;97.90;;;;;;5096944;28;20409;-74
2021/08/23 23:05:22;;;;;;;30.92;18.90;;;18.00;97.90;;;;;;5096590;28;20020;-74
2021/08/23 23:07:49;;;;;;;31.35;20.00;;;17.90;97.80;;;;;;5096775;28;20122;-74
2021/08/23 23:10:17;;;;;;;31.13;19.45;;;17.90;97.70;;;;;;5096347;28;20031;-74
2021/08/23 23:12:43;;;;;;;35.75;20.60;;;17.90;97.80;;;;;;5096285;28;20547;-74
2021/08/23 23:15:09;;;;;;;31.80;21.33;;;17.90;97.80;;;;;;5096215;28;20028;-74
2021/08/23 23:17:35;;;;;;;30.95;20.20;;;17.90;97.70;;;;;;5096415;28;20028;-74
2021/08/23 23:20:02;;;;;;;32.72;20.80;;;17.90;97.70;;;;;;5095954;28;20024;-74
2021/08/23 23:22:27;;;;;;;36.47;21.48;;;17.90;97.60;;;;;;5096510;28;20495;-74
2021/08/23 23:24:53;;;;;;;32.70;20.75;;;17.90;97.70;;;;;;5095810;28;20047;-74
2021/08/23 23:27:19;;;;;;;33.05;22.00;;;17.90;97.70;;;;;;5095895;28;20020;-74
2021/08/23 23:29:44;;;;;;;36.78;23.38;;;17.90;97.70;;;;;;5095974;28;20355;-74
2021/08/23 23:32:10;;;;;;;35.40;23.27;;;17.90;97.60;;;;;;5095900;28;20020;-74
2021/08/23 23:34:36;;;;;;;38.17;23.10;;;17.90;97.60;;;;;;5096261;28;20028;-74
2021/08/23 23:37:01;;;;;;;40.47;24.65;;;17.90;97.60;;;;;;5095761;28;20020;-74
2021/08/23 23:39:27;;;;;;;36.10;23.92;;;17.90;97.70;;;;;;5095560;28;20504;-74
2021/08/23 23:41:53;;;;;;;37.08;23.92;;;17.90;97.70;;;;;;5096337;28;20024;-74
2021/08/23 23:44:18;;;;;;;40.97;25.75;;;17.90;97.70;;;;;;5095604;28;20016;-74
2021/08/23 23:46:44;;;;;;;39.80;24.95;;;17.90;97.80;;;;;;5096078;28;20016;-74
2021/08/23 23:49:10;;;;;;;40.70;23.98;;;17.80;97.80;;;;;;5096058;28;20020;-74
2021/08/23 23:51:35;;;;;;;40.58;25.65;;;17.90;97.80;;;;;;5095839;28;20427;-74
2021/08/23 23:54:01;;;;;;;46.25;26.33;;;17.80;97.80;;;;;;5095745;28;20049;-74
2021/08/23 23:56:27;;;;;;;43.15;26.88;;;17.80;97.80;;;;;;5096107;28;20048;-74
2021/08/23 23:58:52;;;;;;;39.47;25.65;;;17.80;97.90;;;;;;5095452;28;20016;-74
